Morro Grande, Brazil
Current Conditions -  °F | °C
As of 10:00 AM on Friday 24 Oct 2014 (Local Time) from SBCM Reporting Station
Haze Haze  
Wind Chill: 73°   Ceiling: Unl
Heat Index: 73°   Visibility: 3mi
Dew Point: 64°   Wind: 5mph
Humidity: 73%   Direction: 300°WNW
Pressure: 29.97"   Gusts: NA
Location:  28.8°S, 49.72°W
Report Text: SBCM 241200Z 30004KT 5000 HZ NSC 23/18 Q1015
Loading
Personal Weather Stations






























Interactive Weather Map
Tropical Storm Tracking
New forecast layout! Learn more

10-Day Weather Forecast

Advertisements
Track Severe Weather on mobile